Main page
METAR-TAF:

METAR-TAF

Airports :

Pyongyang Sunan International Airport

Pyongyang, North Korea

latitude: 39-02N, longitude: 125-47E, elevation: 36 m

METAR: missing

Time: 03:54 (19:24 UTC)

Forecast

The report was made 15 hours and 4 minutes ago, at 04:20 UTC
Forecast valid from 17 at 06 UTC to 18 at 06 UTC
Wind 6 kt from the West
Visibility 10 km or more
Broken clouds at a height of 2300 ft
Temporary
from 17 at 10 UTC to 17 at 16 UTC
Visibility: 4000 m
Overcast at a height of 1300 ft
light rain

TAF: ZKPY 170420Z 1706/1806 27003MPS 9999 BKN023 TX18/1706Z TN05/1721Z TEMPO 1710/1716 4000 -RA OVC013

Weather observations and forecasts of more than 4000 airports (METAR and TAF reports).

The available stations are represented by yellow and red dots on the map.

Hover mouse over dot to see the name of the station.

Then click to see weather observations and forecasts.

To change the map : click on the green buttons with a black cross to zoom in, on the green button with a dash to zoom out, or on the green arrows for adjacent maps.


METAR-TAF: